< < Back
Terminal Aerodrome Forecast


Current Version              Previous Versions:   1  2  3  4  5  6  7  8  9  

Terminal Aerodrome Forecast

514
FTUS42 KCAE 180900 AAB
TAFAGS
TAF AMD
KAGS 180942Z 1810/1906 06005KT P6SM SCT050 OVC150
     FM181200 04010G16KT P6SM BKN025 OVC100
     FM181800 04012G18KT 5SM -RA OVC020
     FM190000 04014G20KT 3SM RA OVC009=

Latest METAR

883
SAUS70 KWBC 181600 RRB
MTRAGS
METAR KAGS 181553Z 03008KT 10SM OVC080 14/07 A3030 RMK AO2 SLP259
T01440072


USA.gov is the U.S. government's official web portal to all federal, state and local government web resources and services.